Time;durP1;ratioP1;P1;durP2;ratioP2;P2;SDS_P1;SDS_P2;PMS_P1;PMS_P2;Temp;Humidity;BMP_temperature;BMP_pressure;BME280_temperature;BME280_humidity;BME280_pressure;Samples;Min_cycle;Max_cycle;Signal;HPM_P1;HPM_P2
2022/07/10 00:00:04;;;;;;;0.90;0.20;;;20.40;57.50;;;;;;5111181;28;20051;-72
2022/07/10 00:02:29;;;;;;;1.02;0.10;;;20.40;57.50;;;;;;5110698;28;20514;-72
2022/07/10 00:04:55;;;;;;;0.90;0.17;;;20.40;57.50;;;;;;5110884;28;20039;-72
2022/07/10 00:07:20;;;;;;;0.73;0.17;;;20.40;57.50;;;;;;5110943;28;20078;-72
2022/07/10 00:09:46;;;;;;;1.17;0.30;;;20.40;57.50;;;;;;5111698;28;20043;-72
2022/07/10 00:12:12;;;;;;;1.50;0.20;;;20.40;57.60;;;;;;5110319;28;20045;-73
2022/07/10 00:14:37;;;;;;;1.92;0.20;;;20.40;57.60;;;;;;5110660;28;20065;-72
2022/07/10 00:17:03;;;;;;;0.52;0.10;;;20.30;57.50;;;;;;5111111;28;20043;-73
2022/07/10 00:19:29;;;;;;;0.70;0.10;;;20.40;57.60;;;;;;5110711;28;20050;-72
2022/07/10 00:21:54;;;;;;;0.65;0.10;;;20.30;57.60;;;;;;5110650;28;20130;-72
2022/07/10 00:24:20;;;;;;;3.38;0.20;;;20.40;57.60;;;;;;5110453;28;20051;-72
2022/07/10 00:26:47;;;;;;;1.73;0.30;;;20.40;57.60;;;;;;5111951;28;20039;-72
2022/07/10 00:29:16;;;;;;;1.40;0.43;;;20.40;57.60;;;;;;5110376;28;20114;-72
2022/07/10 00:31:42;;;;;;;0.88;0.20;;;20.40;57.60;;;;;;5109995;28;20043;-73
2022/07/10 00:34:07;;;;;;;1.73;0.50;;;20.30;57.60;;;;;;5110638;28;20039;-72
2022/07/10 00:36:33;;;;;;;1.35;0.43;;;20.30;57.60;;;;;;5111140;28;20039;-72
2022/07/10 00:38:59;;;;;;;1.25;0.10;;;20.30;57.60;;;;;;5110332;28;20498;-73
2022/07/10 00:41:25;;;;;;;1.52;0.13;;;20.30;57.60;;;;;;5110510;28;20126;-73
2022/07/10 00:43:57;;;;;;;0.80;0.10;;;20.30;57.60;;;;;;5110352;28;20101;-73
2022/07/10 00:46:24;;;;;;;1.15;0.10;;;20.30;57.70;;;;;;5110520;28;20048;-73
2022/07/10 00:48:50;;;;;;;1.95;0.20;;;20.30;57.70;;;;;;5111560;28;20395;-72
2022/07/10 00:51:17;;;;;;;1.73;0.28;;;20.30;57.70;;;;;;5111280;28;20062;-73
2022/07/10 00:53:46;;;;;;;1.08;0.20;;;20.30;57.70;;;;;;5109867;28;20039;-73
2022/07/10 00:56:15;;;;;;;1.13;0.20;;;20.30;57.70;;;;;;5113264;28;20369;-72
2022/07/10 00:58:41;;;;;;;1.63;0.17;;;20.30;57.70;;;;;;5114613;28;20382;-72
2022/07/10 01:01:07;;;;;;;1.60;0.47;;;20.30;57.70;;;;;;5113886;28;20035;-73
2022/07/10 01:03:32;;;;;;;1.85;0.10;;;20.30;57.70;;;;;;5115641;28;20040;-72
2022/07/10 01:05:58;;;;;;;2.10;0.10;;;20.30;57.70;;;;;;5114329;28;20047;-72
2022/07/10 01:08:24;;;;;;;1.25;0.17;;;20.30;57.70;;;;;;5114004;28;20123;-72
2022/07/10 01:10:51;;;;;;;1.25;0.13;;;20.30;57.70;;;;;;5113401;28;20038;-72
2022/07/10 01:13:17;;;;;;;1.90;0.32;;;20.30;57.70;;;;;;5113319;28;20084;-72
2022/07/10 01:15:43;;;;;;;1.77;0.20;;;20.20;57.70;;;;;;5114126;28;20039;-72
2022/07/10 01:18:11;;;;;;;2.05;0.20;;;20.20;57.70;;;;;;5113976;28;20069;-73
2022/07/10 01:20:37;;;;;;;2.03;0.43;;;20.20;57.70;;;;;;5113705;28;20047;-72
2022/07/10 01:23:02;;;;;;;0.93;0.10;;;20.20;57.70;;;;;;5113531;28;20051;-73
2022/07/10 01:25:28;;;;;;;1.08;0.20;;;20.20;57.70;;;;;;5113556;28;20044;-73
2022/07/10 01:27:54;;;;;;;2.30;0.10;;;20.20;57.70;;;;;;5112607;28;20039;-72
2022/07/10 01:30:23;;;;;;;1.35;0.10;;;20.20;57.70;;;;;;5113090;28;20046;-72
2022/07/10 01:32:48;;;;;;;1.55;0.35;;;20.20;57.80;;;;;;5113982;28;20106;-73
2022/07/10 01:35:15;;;;;;;1.17;0.20;;;20.20;57.80;;;;;;5115095;28;20589;-72
2022/07/10 01:37:40;;;;;;;0.98;0.10;;;20.20;57.80;;;;;;5113965;28;20514;-72
2022/07/10 01:40:08;;;;;;;1.83;0.10;;;20.20;57.80;;;;;;5113366;28;20039;-72
2022/07/10 01:42:33;;;;;;;1.80;0.75;;;20.10;57.80;;;;;;5113041;28;20580;-72
2022/07/10 01:44:59;;;;;;;0.57;0.10;;;20.20;57.90;;;;;;5114348;28;20078;-72
2022/07/10 01:47:27;;;;;;;1.25;0.20;;;20.10;57.80;;;;;;5112834;28;20118;-71
2022/07/10 01:49:53;;;;;;;1.23;0.30;;;20.10;57.80;;;;;;5112169;28;20050;-72
2022/07/10 01:52:25;;;;;;;1.00;0.20;;;20.10;57.80;;;;;;5111996;28;20040;-72
2022/07/10 01:54:51;;;;;;;1.05;0.38;;;20.10;57.90;;;;;;5112749;28;20558;-72
2022/07/10 01:57:17;;;;;;;1.70;0.20;;;20.10;57.80;;;;;;5112895;28;20119;-72
2022/07/10 01:59:43;;;;;;;0.47;0.13;;;20.10;57.80;;;;;;5113103;28;20483;-72
2022/07/10 02:02:09;;;;;;;2.20;0.20;;;20.10;57.80;;;;;;5113974;28;20032;-72
2022/07/10 02:04:40;;;;;;;1.60;0.38;;;20.10;57.90;;;;;;5112700;28;20433;-73
2022/07/10 02:07:08;;;;;;;0.60;0.10;;;20.10;57.90;;;;;;5112920;28;20039;-72
2022/07/10 02:09:34;;;;;;;0.70;0.10;;;20.10;57.90;;;;;;5112612;28;20047;-73
2022/07/10 02:12:03;;;;;;;1.35;0.20;;;20.10;57.90;;;;;;5112084;28;20046;-72
2022/07/10 02:14:29;;;;;;;1.52;0.28;;;20.10;57.90;;;;;;5113171;28;20118;-73
2022/07/10 02:16:55;;;;;;;1.02;0.10;;;20.10;57.90;;;;;;5112563;28;20126;-72
2022/07/10 02:19:21;;;;;;;0.85;0.20;;;20.00;57.90;;;;;;5113065;28;20406;-72
2022/07/10 02:21:47;;;;;;;1.65;0.30;;;20.00;57.90;;;;;;5113453;28;20077;-72
2022/07/10 02:24:12;;;;;;;1.42;0.17;;;20.00;57.90;;;;;;5112262;28;20491;-72
2022/07/10 02:26:38;;;;;;;1.08;0.15;;;20.00;58.00;;;;;;5112692;28;20032;-72
2022/07/10 02:29:04;;;;;;;1.00;0.10;;;20.00;57.90;;;;;;5113465;28;20115;-72
2022/07/10 02:31:29;;;;;;;1.40;0.10;;;20.00;57.90;;;;;;5112175;28;20327;-72
2022/07/10 02:33:55;;;;;;;1.45;0.63;;;20.00;58.70;;;;;;5112851;28;20036;-72
2022/07/10 02:36:20;;;;;;;0.85;0.10;;;20.00;57.90;;;;;;5112201;28;20073;-72
2022/07/10 02:38:46;;;;;;;2.63;0.40;;;20.00;58.00;;;;;;5112433;28;20054;-72
2022/07/10 02:41:12;;;;;;;0.85;0.15;;;20.00;57.90;;;;;;5112066;28;20502;-72
2022/07/10 02:43:37;;;;;;;1.80;0.40;;;19.90;57.90;;;;;;5111803;28;20124;-72
2022/07/10 02:46:04;;;;;;;1.10;0.20;;;19.90;57.90;;;;;;5112000;28;20101;-72
2022/07/10 02:48:29;;;;;;;0.80;0.10;;;20.00;57.90;;;;;;5111541;28;20047;-72
2022/07/10 02:50:55;;;;;;;2.92;0.30;;;20.00;58.00;;;;;;5112803;28;20038;-73
2022/07/10 02:53:20;;;;;;;1.48;0.20;;;19.90;57.90;;;;;;5111365;28;20071;-72
2022/07/10 02:55:46;;;;;;;2.33;0.20;;;19.90;57.90;;;;;;5111844;28;20054;-72
2022/07/10 02:58:12;;;;;;;1.13;0.20;;;19.90;57.90;;;;;;5111672;28;20043;-72
2022/07/10 03:00:38;;;;;;;1.75;0.20;;;19.90;58.00;;;;;;5111982;28;20042;-72
2022/07/10 03:03:03;;;;;;;2.33;0.43;;;19.90;58.00;;;;;;5111847;28;20560;-72
2022/07/10 03:05:29;;;;;;;1.60;0.30;;;19.90;58.00;;;;;;5111499;28;20066;-72
2022/07/10 03:07:57;;;;;;;1.10;0.20;;;19.90;58.00;;;;;;5111559;28;20063;-72
2022/07/10 03:10:23;;;;;;;1.67;0.20;;;19.90;58.00;;;;;;5111394;28;20035;-72
2022/07/10 03:12:52;;;;;;;1.67;0.28;;;19.90;58.00;;;;;;5111130;28;20027;-72
2022/07/10 03:15:17;;;;;;;2.22;0.17;;;19.90;58.00;;;;;;5111121;28;20483;-72
2022/07/10 03:17:43;;;;;;;0.75;0.10;;;19.90;58.10;;;;;;5111815;28;20138;-72
2022/07/10 03:20:09;;;;;;;1.63;0.30;;;19.90;58.00;;;;;;5111269;28;20399;-72
2022/07/10 03:22:36;;;;;;;2.47;0.20;;;19.90;58.10;;;;;;5112621;28;20070;-72
2022/07/10 03:25:02;;;;;;;1.67;0.30;;;19.80;58.00;;;;;;5111389;28;20590;-72
2022/07/10 03:27:30;;;;;;;1.00;0.10;;;19.80;58.00;;;;;;5111468;28;20135;-72
2022/07/10 03:29:56;;;;;;;1.05;0.17;;;19.90;58.10;;;;;;5112350;28;20096;-72
2022/07/10 03:32:21;;;;;;;1.65;0.20;;;19.80;58.00;;;;;;5110673;28;20028;-73
2022/07/10 03:34:47;;;;;;;1.80;0.10;;;19.80;58.00;;;;;;5112057;28;20039;-72
2022/07/10 03:37:13;;;;;;;1.00;0.20;;;19.80;58.00;;;;;;5112507;28;20039;-72
2022/07/10 03:39:39;;;;;;;1.98;0.10;;;19.80;58.00;;;;;;5112542;28;20074;-72
2022/07/10 03:42:06;;;;;;;1.92;0.10;;;19.80;58.00;;;;;;5110923;28;20109;-72
2022/07/10 03:44:32;;;;;;;0.93;0.10;;;19.80;58.00;;;;;;5110909;28;20047;-72
2022/07/10 03:46:57;;;;;;;1.80;0.20;;;19.80;58.00;;;;;;5110911;28;20065;-72
2022/07/10 03:49:23;;;;;;;0.70;0.10;;;19.80;58.00;;;;;;5110848;28;20052;-72
2022/07/10 03:51:49;;;;;;;2.90;0.20;;;19.80;58.00;;;;;;5110764;28;20118;-72
2022/07/10 03:54:15;;;;;;;1.58;0.20;;;19.80;58.00;;;;;;5110512;28;20494;-72
2022/07/10 03:59:26;;;;;;;2.20;0.10;;;19.70;58.00;;;;;;5110709;28;20040;-72
2022/07/10 04:01:51;;;;;;;0.65;0.10;;;19.70;57.90;;;;;;5110821;28;20040;-72
2022/07/10 04:04:17;;;;;;;1.05;0.13;;;19.80;58.00;;;;;;5112148;28;20061;-72
2022/07/10 04:06:43;;;;;;;0.70;0.10;;;19.80;58.00;;;;;;5111324;28;20443;-72
2022/07/10 04:09:08;;;;;;;0.93;0.20;;;19.80;58.00;;;;;;5110928;28;20032;-72
2022/07/10 04:11:34;;;;;;;1.13;0.10;;;19.80;58.00;;;;;;5110439;28;20097;-72
2022/07/10 04:13:59;;;;;;;2.15;0.22;;;19.80;58.00;;;;;;5111234;28;20043;-72
2022/07/10 04:16:25;;;;;;;1.10;0.20;;;19.70;57.90;;;;;;5112054;28;20031;-72
2022/07/10 04:18:51;;;;;;;1.25;0.43;;;19.80;58.00;;;;;;5110764;28;20043;-72
2022/07/10 04:21:16;;;;;;;1.35;0.35;;;19.70;57.90;;;;;;5112163;28;20123;-72
2022/07/10 04:23:42;;;;;;;1.50;0.32;;;19.80;58.00;;;;;;5110788;28;20039;-72
2022/07/10 04:26:08;;;;;;;1.23;0.10;;;19.70;57.90;;;;;;5111905;28;20036;-72
2022/07/10 04:28:33;;;;;;;0.98;0.10;;;19.70;57.90;;;;;;5110711;28;20468;-72
2022/07/10 04:30:59;;;;;;;2.05;0.10;;;19.70;57.90;;;;;;5111831;28;20495;-72
2022/07/10 04:33:25;;;;;;;0.40;0.10;;;19.70;57.90;;;;;;5113942;28;20122;-72
2022/07/10 04:35:51;;;;;;;1.30;0.20;;;19.70;57.90;;;;;;5114386;28;20043;-72
2022/07/10 04:38:16;;;;;;;2.22;0.10;;;19.70;57.90;;;;;;5115776;28;20039;-72
2022/07/10 04:40:42;;;;;;;1.15;0.10;;;19.70;57.90;;;;;;5114542;28;20517;-72
2022/07/10 04:43:11;;;;;;;2.40;0.20;;;19.70;57.80;;;;;;5115579;28;20118;-72
2022/07/10 04:45:37;;;;;;;0.50;0.10;;;19.60;57.80;;;;;;5115545;28;20450;-72
2022/07/10 04:48:05;;;;;;;0.88;0.30;;;19.70;57.80;;;;;;5113951;28;20048;-72
2022/07/10 04:50:31;;;;;;;0.82;0.28;;;19.70;57.80;;;;;;5115742;28;20044;-72
2022/07/10 04:52:57;;;;;;;1.23;0.20;;;19.70;57.80;;;;;;5113587;28;20548;-72
2022/07/10 04:55:23;;;;;;;0.82;0.10;;;19.70;57.80;;;;;;5115038;27;20077;-72
2022/07/10 04:57:49;;;;;;;1.30;0.20;;;19.70;57.80;;;;;;5115341;28;20488;-72
2022/07/10 05:00:15;;;;;;;0.70;0.10;;;19.70;57.80;;;;;;5114302;28;20075;-71
2022/07/10 05:02:41;;;;;;;1.05;0.10;;;19.70;57.80;;;;;;5114179;28;20047;-72
2022/07/10 05:05:07;;;;;;;1.00;0.20;;;19.70;57.80;;;;;;5115527;28;20038;-72
2022/07/10 05:07:33;;;;;;;0.95;0.10;;;19.70;57.80;;;;;;5114319;28;20072;-72
2022/07/10 05:09:58;;;;;;;2.30;0.20;;;19.70;57.80;;;;;;5113736;28;20035;-72
2022/07/10 05:12:24;;;;;;;1.02;0.40;;;19.70;57.70;;;;;;5114754;28;20071;-72
2022/07/10 05:14:50;;;;;;;0.63;0.10;;;19.70;57.70;;;;;;5113136;28;20478;-72
2022/07/10 05:17:16;;;;;;;1.02;0.13;;;19.70;57.70;;;;;;5114079;28;20043;-72
2022/07/10 05:19:44;;;;;;;0.88;0.20;;;19.70;57.70;;;;;;5114943;28;20088;-72
2022/07/10 05:22:10;;;;;;;2.33;0.20;;;19.70;57.80;;;;;;5096901;28;20483;-72
2022/07/10 05:24:36;;;;;;;1.95;0.13;;;19.70;57.70;;;;;;5113185;28;20043;-72
2022/07/10 05:27:01;;;;;;;0.90;0.40;;;19.70;57.70;;;;;;5113561;28;20040;-72
2022/07/10 05:29:27;;;;;;;1.42;0.20;;;19.70;57.70;;;;;;5114578;28;20043;-72
2022/07/10 05:31:52;;;;;;;2.50;0.30;;;19.70;57.70;;;;;;5113145;28;20126;-72
2022/07/10 05:34:18;;;;;;;1.40;0.10;;;19.80;57.80;;;;;;5112961;28;20122;-72
2022/07/10 05:36:44;;;;;;;1.40;0.13;;;19.80;57.80;;;;;;5114598;28;20394;-72
2022/07/10 05:39:09;;;;;;;3.00;0.20;;;19.70;57.70;;;;;;5113378;28;20570;-72
2022/07/10 05:41:36;;;;;;;0.88;0.10;;;19.80;57.80;;;;;;5114288;28;20043;-72
2022/07/10 05:44:01;;;;;;;0.85;0.10;;;19.80;57.90;;;;;;5113119;28;20540;-72
2022/07/10 05:46:27;;;;;;;1.23;0.13;;;19.80;57.80;;;;;;5114284;28;20047;-72
2022/07/10 05:48:53;;;;;;;1.52;0.20;;;19.80;57.90;;;;;;5114051;28;20055;-72
2022/07/10 05:51:18;;;;;;;1.50;0.10;;;19.80;57.90;;;;;;5112930;28;20039;-72
2022/07/10 05:53:44;;;;;;;1.10;0.20;;;19.80;57.90;;;;;;5112808;28;20080;-72
2022/07/10 05:56:10;;;;;;;1.30;0.20;;;19.80;57.90;;;;;;5112456;28;20448;-72
2022/07/10 05:58:35;;;;;;;1.30;0.10;;;19.70;57.90;;;;;;5113254;28;20064;-72
2022/07/10 06:01:01;;;;;;;0.90;0.20;;;19.80;57.90;;;;;;5112711;28;20050;-72
2022/07/10 06:03:27;;;;;;;2.67;0.20;;;19.80;58.00;;;;;;5112825;28;20055;-72
2022/07/10 06:05:52;;;;;;;0.43;0.10;;;19.80;58.10;;;;;;5112696;28;20046;-72
2022/07/10 06:08:18;;;;;;;1.30;0.38;;;19.80;58.00;;;;;;5112860;28;20047;-72
2022/07/10 06:10:44;;;;;;;0.77;0.20;;;19.80;58.00;;;;;;5112631;28;20035;-72
2022/07/10 06:13:11;;;;;;;0.95;0.20;;;19.80;58.10;;;;;;5112468;28;20122;-72
2022/07/10 06:15:37;;;;;;;0.93;0.10;;;19.80;58.10;;;;;;5112187;28;20139;-72
2022/07/10 06:18:02;;;;;;;2.13;0.20;;;19.80;58.20;;;;;;5111697;28;20122;-71
2022/07/10 06:20:28;;;;;;;1.63;0.20;;;19.80;58.20;;;;;;5112044;28;20043;-72
2022/07/10 06:22:54;;;;;;;1.15;0.17;;;19.80;58.10;;;;;;5112622;28;20096;-71
2022/07/10 06:25:20;;;;;;;1.27;0.32;;;19.80;58.20;;;;;;5112222;28;20035;-72
2022/07/10 06:27:46;;;;;;;1.33;0.10;;;19.80;58.20;;;;;;5112770;28;20032;-72
2022/07/10 06:30:15;;;;;;;0.80;0.22;;;19.80;58.20;;;;;;5112295;28;20051;-72
2022/07/10 06:32:41;;;;;;;1.80;0.30;;;19.80;58.20;;;;;;5111853;28;20478;-72
2022/07/10 06:35:07;;;;;;;2.75;0.20;;;19.80;58.20;;;;;;5111739;28;20115;-72
2022/07/10 06:37:37;;;;;;;1.52;0.10;;;19.80;58.20;;;;;;5112244;28;20035;-73
2022/07/10 06:40:04;;;;;;;2.65;0.20;;;19.80;58.20;;;;;;5113460;28;20051;-72
2022/07/10 06:42:29;;;;;;;2.67;0.20;;;19.80;58.20;;;;;;5112435;28;20044;-72
2022/07/10 06:44:56;;;;;;;0.60;0.20;;;19.80;58.20;;;;;;5111531;28;20543;-72
2022/07/10 06:50:09;;;;;;;2.13;0.20;;;19.90;58.30;;;;;;5111303;28;20064;-71
2022/07/10 06:52:35;;;;;;;1.67;0.85;;;19.90;58.30;;;;;;5111489;28;20048;-72
2022/07/10 06:55:02;;;;;;;1.45;0.20;;;19.90;58.20;;;;;;5110601;28;20043;-71
2022/07/10 06:57:28;;;;;;;1.30;0.20;;;19.90;58.20;;;;;;5111811;28;20479;-71
2022/07/10 06:59:54;;;;;;;2.63;0.30;;;19.90;58.20;;;;;;5111967;28;20028;-72
2022/07/10 07:02:20;;;;;;;0.85;0.10;;;19.90;58.20;;;;;;5111991;28;20043;-72
2022/07/10 07:04:46;;;;;;;1.92;0.20;;;19.90;58.20;;;;;;5113090;28;20110;-72
2022/07/10 07:07:12;;;;;;;2.15;0.20;;;19.90;58.20;;;;;;5111585;28;20039;-71
2022/07/10 07:09:38;;;;;;;1.20;0.10;;;19.90;58.30;;;;;;5111663;28;20050;-72
2022/07/10 07:12:05;;;;;;;1.80;0.20;;;19.90;58.30;;;;;;5111740;28;20031;-72
2022/07/10 07:14:31;;;;;;;1.98;0.20;;;19.90;58.30;;;;;;5110864;28;20036;-72
2022/07/10 07:17:00;;;;;;;1.98;0.28;;;19.90;58.30;;;;;;5111114;28;20049;-71
2022/07/10 07:23:09;;;;;;;0.95;0.10;;;20.00;58.30;;;;;;5111517;28;20055;-72
2022/07/10 07:24:59;;;;;;;1.25;0.10;;;19.90;58.30;;;;;;5112259;28;20126;-72
2022/07/10 07:27:26;;;;;;;2.17;0.13;;;20.00;58.40;;;;;;5111400;28;20130;-72
2022/07/10 07:29:51;;;;;;;2.15;0.20;;;19.90;58.40;;;;;;5111233;28;20039;-72
2022/07/10 07:32:20;;;;;;;1.48;0.20;;;19.90;58.40;;;;;;5111111;28;20114;-72
2022/07/10 07:34:45;;;;;;;2.20;0.15;;;19.90;58.50;;;;;;5110846;28;20387;-72
2022/07/10 07:37:11;;;;;;;1.23;0.60;;;19.90;58.40;;;;;;5110826;28;20044;-72
2022/07/10 07:39:37;;;;;;;2.05;0.30;;;19.90;58.50;;;;;;5112446;28;20078;-72
2022/07/10 07:42:06;;;;;;;2.08;0.35;;;20.00;58.60;;;;;;5111125;28;20520;-72
2022/07/10 07:44:31;;;;;;;1.73;0.17;;;19.90;58.50;;;;;;5111217;28;20054;-72
2022/07/10 07:46:57;;;;;;;1.38;0.20;;;19.90;58.50;;;;;;5111189;28;20044;-72
2022/07/10 07:49:23;;;;;;;1.40;0.35;;;20.00;58.60;;;;;;5110770;28;20192;-72
2022/07/10 07:51:48;;;;;;;1.00;0.10;;;19.90;58.50;;;;;;5111410;28;20486;-72
2022/07/10 07:54:15;;;;;;;2.10;0.30;;;20.00;58.60;;;;;;5111694;28;20491;-72
2022/07/10 07:56:41;;;;;;;1.10;0.20;;;20.00;58.60;;;;;;5111688;28;20057;-72
2022/07/10 07:59:06;;;;;;;1.60;0.10;;;20.00;58.60;;;;;;5110859;28;20596;-72
2022/07/10 08:01:32;;;;;;;2.17;0.20;;;20.00;58.70;;;;;;5111257;28;20044;-72
2022/07/10 08:04:00;;;;;;;1.38;0.10;;;20.00;58.70;;;;;;5110964;28;20039;-72
2022/07/10 08:06:26;;;;;;;1.67;0.10;;;20.00;58.70;;;;;;5115134;28;20047;-72
2022/07/10 08:08:52;;;;;;;1.75;0.10;;;20.00;58.60;;;;;;5114970;28;20511;-72
2022/07/10 08:11:17;;;;;;;0.70;0.20;;;20.00;58.60;;;;;;5116284;28;20042;-72
2022/07/10 08:13:43;;;;;;;0.75;0.10;;;20.10;58.60;;;;;;5114700;28;20387;-72
2022/07/10 08:16:08;;;;;;;1.60;0.30;;;20.10;58.60;;;;;;5114384;28;20047;-72
2022/07/10 08:18:34;;;;;;;3.42;0.20;;;20.10;58.60;;;;;;5115034;28;20119;-72
2022/07/10 08:21:00;;;;;;;1.30;0.10;;;20.10;58.50;;;;;;5114885;28;20043;-72
2022/07/10 08:23:26;;;;;;;1.77;0.10;;;20.10;58.50;;;;;;5114862;28;20040;-72
2022/07/10 08:25:51;;;;;;;1.10;0.20;;;20.20;58.50;;;;;;5114475;28;20126;-72
2022/07/10 08:28:17;;;;;;;1.50;0.25;;;20.20;58.50;;;;;;5115000;28;20104;-73
2022/07/10 08:30:43;;;;;;;1.20;0.10;;;20.20;58.40;;;;;;5116201;28;20038;-72
2022/07/10 08:33:09;;;;;;;0.57;0.10;;;20.20;58.50;;;;;;5114371;28;20054;-72
2022/07/10 08:35:34;;;;;;;1.23;0.40;;;20.20;58.50;;;;;;5115205;28;20032;-72
2022/07/10 08:38:01;;;;;;;3.28;0.10;;;20.20;58.50;;;;;;5113771;28;20035;-72
2022/07/10 08:40:34;;;;;;;0.65;0.10;;;20.20;58.50;;;;;;5114424;28;20110;-72
2022/07/10 08:43:00;;;;;;;0.73;0.10;;;20.20;58.50;;;;;;5114589;28;20615;-72
2022/07/10 08:45:27;;;;;;;0.40;0.20;;;20.10;58.50;;;;;;5115816;28;20049;-71
2022/07/10 08:47:59;;;;;;;0.68;0.10;;;20.20;58.70;;;;;;5114237;28;20051;-72
2022/07/10 08:50:28;;;;;;;1.45;0.20;;;20.20;58.80;;;;;;5114280;28;20051;-72
2022/07/10 08:55:36;;;;;;;1.00;0.10;;;20.10;58.70;;;;;;5088857;28;20404;-70
2022/07/10 08:58:04;;;;;;;1.10;0.10;;;20.10;58.80;;;;;;5087919;28;20055;-70
2022/07/10 09:00:30;;;;;;;0.60;0.20;;;20.10;58.80;;;;;;5088054;28;20503;-70
2022/07/10 09:02:56;;;;;;;1.92;0.10;;;20.10;58.80;;;;;;5088127;28;20123;-70
2022/07/10 09:05:26;;;;;;;0.63;0.10;;;20.20;58.90;;;;;;5088099;28;20116;-70
2022/07/10 09:07:53;;;;;;;1.27;0.10;;;20.20;58.90;;;;;;5089132;28;20044;-70
2022/07/10 09:10:21;;;;;;;1.08;0.10;;;20.20;58.90;;;;;;5089390;28;20036;-70
2022/07/10 09:13:01;;;;;;;0.80;0.10;;;20.20;58.90;;;;;;5087646;28;20048;-70
2022/07/10 09:15:31;;;;;;;1.05;0.10;;;20.20;58.90;;;;;;5088571;28;20407;-70
2022/07/10 09:18:00;;;;;;;0.40;0.10;;;20.20;58.90;;;;;;5087480;28;20123;-70
2022/07/10 09:20:30;;;;;;;2.08;0.20;;;20.20;58.90;;;;;;5087683;28;20070;-70
2022/07/10 09:23:10;;;;;;;2.13;0.20;;;20.30;59.00;;;;;;5087701;28;20074;-70
2022/07/10 09:25:35;;;;;;;0.22;0.10;;;20.20;58.90;;;;;;5087754;28;20040;-70
2022/07/10 09:28:05;;;;;;;0.98;0.10;;;20.30;58.90;;;;;;5088690;28;20074;-70
2022/07/10 09:36:08;;;;;;;0.50;0.10;;;20.30;58.90;;;;;;5088869;27;20130;-70
2022/07/10 09:38:51;;;;;;;1.20;0.10;;;20.30;59.10;;;;;;5088015;28;20093;-70
2022/07/10 09:46:38;;;;;;;0.70;0.10;;;20.30;59.10;;;;;;5130127;27;20379;-70
2022/07/10 09:51:47;;;;;;;0.50;0.10;;;20.30;59.20;;;;;;5130395;27;20403;-70
2022/07/10 09:54:13;;;;;;;0.60;0.10;;;20.30;59.20;;;;;;5128760;28;20391;-70
2022/07/10 09:56:42;;;;;;;0.90;0.20;;;20.30;59.20;;;;;;5128427;28;20044;-70
2022/07/10 09:59:12;;;;;;;1.45;0.10;;;20.30;59.30;;;;;;5129057;28;20435;-70
2022/07/10 10:01:42;;;;;;;1.03;0.20;;;20.30;59.20;;;;;;5128915;28;20096;-70
2022/07/10 10:04:09;;;;;;;0.38;0.10;;;20.30;59.30;;;;;;5129050;27;20035;-70
2022/07/10 10:06:36;;;;;;;0.60;0.10;;;20.30;59.30;;;;;;5128834;28;20047;-70
2022/07/10 10:11:49;;;;;;;1.77;0.10;;;20.30;59.30;;;;;;5130227;27;20426;-70
2022/07/10 10:14:18;;;;;;;0.63;0.10;;;20.30;59.40;;;;;;5128689;28;20043;-70
2022/07/10 10:16:45;;;;;;;1.52;0.10;;;20.30;59.40;;;;;;5145552;27;20044;-70
2022/07/10 10:21:59;;;;;;;0.75;0.10;;;20.20;59.60;;;;;;5128638;28;20058;-71
2022/07/10 10:24:25;;;;;;;0.68;0.10;;;20.20;59.60;;;;;;5129019;28;20087;-71
2022/07/10 10:26:52;;;;;;;0.43;0.10;;;20.20;59.60;;;;;;5129828;28;20031;-71
2022/07/10 10:29:17;;;;;;;1.10;0.10;;;20.20;59.70;;;;;;5128614;28;20048;-71
2022/07/10 10:31:44;;;;;;;0.77;0.10;;;20.20;59.70;;;;;;5129887;28;20093;-70
2022/07/10 10:34:09;;;;;;;0.82;0.20;;;20.20;59.70;;;;;;5128391;27;20028;-70
2022/07/10 10:41:54;;;;;;;0.55;0.10;;;20.30;59.70;;;;;;5130376;27;20358;-71
2022/07/10 10:44:23;;;;;;;0.75;0.10;;;20.30;59.60;;;;;;5128189;28;20039;-71
2022/07/10 10:49:51;;;;;;;0.95;0.20;;;20.40;59.70;;;;;;5109680;27;20777;-70
2022/07/10 10:52:17;;;;;;;0.70;0.10;;;20.30;59.80;;;;;;5108358;28;20083;-71
2022/07/10 10:57:44;;;;;;;0.22;0.10;;;20.30;59.80;;;;;;5152366;27;1162799;-71
2022/07/10 11:00:14;;;;;;;1.15;0.30;;;20.30;59.70;;;;;;5153060;27;20054;-71
2022/07/10 11:02:41;;;;;;;0.68;0.20;;;20.40;59.80;;;;;;5153472;27;20118;-70
2022/07/10 11:07:58;;;;;;;0.15;0.00;;;20.40;59.70;;;;;;5109716;27;20302;-71
2022/07/10 11:15:53;;;;;;;0.60;0.10;;;20.50;59.50;;;;;;5129804;27;20391;-71
2022/07/10 11:18:22;;;;;;;0.73;0.10;;;20.60;59.40;;;;;;5145945;27;20115;-71
2022/07/10 11:20:50;;;;;;;1.05;0.10;;;20.60;59.40;;;;;;5128928;28;20535;-71
2022/07/10 11:26:24;;;;;;;0.80;0.10;;;20.60;59.40;;;;;;5130093;27;20350;-70
2022/07/10 11:28:53;;;;;;;1.63;0.20;;;20.60;59.30;;;;;;5146456;27;20065;-70
2022/07/10 11:31:20;;;;;;;1.02;0.10;;;20.60;59.40;;;;;;5111790;28;20046;-71
2022/07/10 11:33:48;;;;;;;0.30;0.10;;;20.60;59.40;;;;;;5128810;28;20051;-71
2022/07/10 11:41:44;;;;;;;0.60;0.20;;;20.60;59.40;;;;;;5109719;27;20140;-71
2022/07/10 11:44:16;;;;;;;2.00;0.13;;;20.60;60.20;;;;;;5091577;28;20479;-71
2022/07/10 11:46:44;;;;;;;2.00;0.10;;;20.60;59.50;;;;;;5091277;28;20048;-71
2022/07/10 11:49:10;;;;;;;0.57;0.10;;;20.60;59.40;;;;;;5091597;28;20119;-71
2022/07/10 11:51:39;;;;;;;0.30;0.10;;;20.60;59.40;;;;;;5091607;28;20039;-71
2022/07/10 11:54:07;;;;;;;0.90;0.10;;;20.70;59.40;;;;;;5091445;28;20072;-70
2022/07/10 11:56:36;;;;;;;0.50;0.17;;;20.70;59.40;;;;;;5090630;28;20475;-71
2022/07/10 11:59:08;;;;;;;0.88;0.15;;;20.70;59.60;;;;;;5109272;28;20161;-71
2022/07/10 12:01:40;;;;;;;0.30;0.10;;;20.60;59.60;;;;;;5091066;28;20051;-71
2022/07/10 12:04:08;;;;;;;0.65;0.10;;;20.60;59.60;;;;;;5109364;28;20040;-71
2022/07/10 12:06:36;;;;;;;0.75;0.10;;;20.60;59.60;;;;;;5109126;28;20097;-71
2022/07/10 12:09:05;;;;;;;1.48;0.20;;;20.70;59.60;;;;;;5109240;28;20051;-71
2022/07/10 12:11:31;;;;;;;1.03;0.40;;;20.60;59.60;;;;;;5091162;28;20094;-71
2022/07/10 12:14:18;;;;;;;1.17;0.10;;;20.70;59.70;;;;;;5091174;28;20547;-71
2022/07/10 12:16:52;;;;;;;1.27;0.13;;;20.70;59.90;;;;;;5108378;28;20043;-70
2022/07/10 12:19:21;;;;;;;0.43;0.20;;;20.70;59.80;;;;;;5108775;28;20391;-70
2022/07/10 12:21:47;;;;;;;0.10;0.03;;;20.70;59.80;;;;;;5091053;28;20123;-71
2022/07/10 12:24:16;;;;;;;0.47;0.10;;;20.70;59.60;;;;;;5090987;28;20044;-70
2022/07/10 12:26:43;;;;;;;2.03;0.10;;;20.70;59.60;;;;;;5090617;28;20036;-70
2022/07/10 12:32:01;;;;;;;1.25;0.20;;;20.80;59.80;;;;;;5130268;27;20358;-71
2022/07/10 12:34:43;;;;;;;0.70;0.20;;;20.80;59.60;;;;;;5128761;28;20138;-70
2022/07/10 12:37:11;;;;;;;0.75;0.10;;;20.80;59.60;;;;;;5127597;28;20067;-70
2022/07/10 12:39:53;;;;;;;0.57;0.10;;;20.80;59.40;;;;;;5128209;28;20519;-70
2022/07/10 12:42:34;;;;;;;0.95;0.10;;;20.80;59.40;;;;;;5129105;27;20057;-71
2022/07/10 12:45:15;;;;;;;1.00;0.10;;;20.80;59.40;;;;;;5128860;27;20512;-70
2022/07/10 12:47:45;;;;;;;1.25;0.10;;;20.80;59.50;;;;;;5128619;28;20441;-70
2022/07/10 12:50:12;;;;;;;0.50;0.20;;;20.80;59.50;;;;;;5128687;27;20058;-70
2022/07/10 12:52:38;;;;;;;0.75;0.20;;;20.80;59.50;;;;;;5128840;28;20039;-70
2022/07/10 12:55:10;;;;;;;0.80;0.10;;;20.80;59.50;;;;;;5129577;28;20035;-70
2022/07/10 12:57:57;;;;;;;1.80;0.10;;;20.80;59.60;;;;;;5127870;28;20046;-70
2022/07/10 13:03:10;;;;;;;0.68;0.10;;;20.80;59.40;;;;;;5130223;27;20418;-70
2022/07/10 13:05:38;;;;;;;0.47;0.13;;;20.80;59.40;;;;;;5146513;27;20043;-70
2022/07/10 13:08:06;;;;;;;1.40;0.10;;;20.80;59.50;;;;;;5129162;27;20039;-70
2022/07/10 13:10:33;;;;;;;0.98;0.15;;;20.70;59.50;;;;;;5129064;28;20050;-71
2022/07/10 13:13:00;;;;;;;0.73;0.10;;;20.70;59.50;;;;;;5129049;28;20047;-70
2022/07/10 13:15:26;;;;;;;0.70;0.20;;;20.70;59.50;;;;;;5128502;28;20508;-70
2022/07/10 13:17:51;;;;;;;0.60;0.10;;;20.70;59.50;;;;;;5127931;27;20122;-71
2022/07/10 13:20:23;;;;;;;0.40;0.20;;;20.70;59.60;;;;;;5128646;28;20126;-71
2022/07/10 13:22:49;;;;;;;0.63;0.10;;;20.70;59.60;;;;;;5128617;28;20050;-70
2022/07/10 13:25:15;;;;;;;1.98;0.10;;;20.70;59.60;;;;;;5128832;28;20387;-70
2022/07/10 13:27:42;;;;;;;2.58;0.20;;;20.70;59.60;;;;;;5128382;28;20042;-71
2022/07/10 13:30:08;;;;;;;1.05;0.20;;;20.70;59.60;;;;;;5145684;27;20039;-70
2022/07/10 13:32:34;;;;;;;0.50;0.20;;;20.70;59.60;;;;;;5128535;28;20062;-70
2022/07/10 13:35:03;;;;;;;0.75;0.10;;;20.70;59.60;;;;;;5128303;28;20467;-71
2022/07/10 13:37:28;;;;;;;0.70;0.20;;;20.70;59.60;;;;;;5129062;27;20031;-70
2022/07/10 13:39:54;;;;;;;1.80;0.32;;;20.70;59.60;;;;;;5127990;28;20038;-70
2022/07/10 13:42:20;;;;;;;1.52;0.40;;;20.70;59.60;;;;;;5128279;28;20061;-70
2022/07/10 13:44:46;;;;;;;2.40;0.10;;;20.60;59.60;;;;;;5128496;28;20050;-70
2022/07/10 13:47:14;;;;;;;0.98;0.30;;;20.60;59.60;;;;;;5128186;28;20035;-71
2022/07/10 13:49:40;;;;;;;0.98;0.20;;;20.60;59.70;;;;;;5127972;28;20122;-71